Terminal Aerodrome Forecast
Issued by NWS

Home | Current Version | Previous Version | Text Only | Print | Product List | Glossary On
Versions: 1 2 3 4 5 6 7 8 9 10 11 12 13
000
FTUS44 KOUN 281125
TAFWWR
TAF
KWWR 281125Z 2812/2912 17005KT P6SM SCT060 BKN120
      TEMPO 2812/2814 -SHRA BKN060
     FM281600 16010KT P6SM SCT060 BKN250
     FM282000 14011KT P6SM BKN050
     FM290200 13006KT P6SM SCT060 BKN120 PROB30 2902/2905 3SM TSRA
      OVC040CB
      AMD NOT SKED=

USA.gov is the U.S. government's official web portal to all federal, state and local government web resources and services.